AirNav   TITAN Aviation Fuels
 
 1077 users online  

7V2 North Fork Valley Airport
Paonia, Colorado, USA

GOING TO PAONIA?


FAA INFORMATION EFFECTIVE 01 DECEMBER 2022

Location

FAA Identifier: 7V2
Lat/Long: 38-49-52.7000N 107-38-45.1000W
38-49.878333N 107-38.751667W
38.8313056,-107.6458611
(estimated)
Elevation: 5788 ft. / 1764 m (estimated)
Variation: 13E (1985)
From city: 3 miles SW of PAONIA, CO
Time zone: UTC -7 (UTC -6 during Daylight Saving Time)
Zip code: 81428

Airport Operations

Airport use: Open to the public
Activation date: 05/1947
Control tower: no
ARTCC: DENVER CENTER
FSS: DENVER FLIGHT SERVICE STATION
NOTAMs facility: DEN (NOTAM-D service available)
Attendance: MON-FRI 0800-1800, ALL SAT-SUN IREG
Pattern altitude: 6588 ft. MSL
Wind indicator: lighted
Segmented circle: no
Lights: ACTVT PAPI RWY 06 & 24; MIRL RWY 06/24 - CTAF.

Airport Communications

CTAF/UNICOM: 122.7
WX AWOS-3 at AJZ (20 nm W): 134.0 (970-874-3251)

Nearby radio navigation aids

VOR radial/distance  VOR name  Freq  Var
MTJr019/22.8MONTROSE VOR/DME117.1012E
HBUr295/36.4BLUE MESA VOR/DME114.9014E

Airport Services

Fuel available: 100LL
100LL:SELF SERVE H24.
Parking: hangars and tiedowns
Airframe service: MAJOR
Powerplant service: MAJOR

Runway Information

Runway 6/24

Dimensions: 4500 x 60 ft. / 1372 x 18 m
Surface: asphalt, in good condition
Runway edge lights: medium intensity
RUNWAY 6  RUNWAY 24
Latitude: 38-49.738000N38-50.019167N
Longitude: 107-39.189667W107-38.312667W
Elevation: 5783.0 ft.5788.0 ft.
Traffic pattern: leftleft
Markings: basic, in good conditionbasic, in good condition
Visual slope indicator: 2-light PAPI on left2-light PAPI on left
Touchdown point: yes, no lightsyes, no lights

Airport Ownership and Management from official FAA records

Ownership: Publicly-owned
Owner: DELTA COUNTY WITH TOWN OF PAONIA
38506 BACK RIVER RD
PAONIA, CO 81428
Phone 970-527-3345
Manager: MIKE CLAWSON
38506 BACK RIVER RD
PAONIA, CO 81428
Phone 970-527-3345
970-260-2138

Airport Operational Statistics

Aircraft based on the field: 23
Single engine airplanes: 17
Multi engine airplanes: 3
Helicopters: 1
Ultralights: 2
    
Aircraft operations: avg 38/week *
50% transient general aviation
50% local general aviation
* for 12-month period ending 31 December 2020

Additional Remarks

FOR CD CTC DENVER ARTCC AT 303-651-4257.
LCL WX - CTAF; 4 CLICKS.

Instrument Procedures

There are no published instrument procedures at 7V2.

Some nearby airports with instrument procedures:

KAJZ - Blake Field Airport (20 nm W)
KMTJ - Montrose Regional Airport (23 nm SW)
KGUC - Gunnison-Crested Butte Regional Airport (38 nm SE)
KRIL - Rifle Garfield County Airport (42 nm N)
KASE - Aspen-Pitkin County Airport/Sardy Field (43 nm NE)
 
Loc | Ops | Rwys | IFR | FBO | Links
Com | Nav | Svcs | Stats | Notes

AirBoss

 
Area around 7V2 (North Fork Valley Airport)
 
Road maps at: MapQuest Bing Google
 
Aerial photo
WARNING: Photo may not be current or correct
Aerial photo of 7V2 (North Fork Valley Airport)
Taken early July 2012
looking west.

Do you have a better or more recent aerial photo of North Fork Valley Airport that you would like to share? If so, please send us your photo.

 
Sectional chart

 
Airport distance calculator
Flying to North Fork Valley Airport? Find the distance to fly.

From to 7V2

Sunrise and sunset
Times for 02-Dec-2022
 Local
(UTC-7)
 Zulu
(UTC)
Morning civil twilight06:4313:43
Sunrise07:1214:12
Sunset16:4823:48
Evening civil twilight17:1800:18

Current date and time
Zulu (UTC)  02-Dec-2022 23:32:52
Local (UTC-7)  02-Dec-2022 16:32:52
 
METAR
KAJZ 
20nm W 
022315Z AUTO 30015G20KT 10SM CLR 08/M07 A3012 RMK AO2 T00811069
KMTJ 
23nm SW 
022253Z AUTO 34013G20KT 10SM FEW065 06/M04 A3011 RMK AO2 PRESRR SLP165 T00611044
K5SM 
38nm N 
022315Z AUTO 25011KT 10SM OVC002 M11/M13 A3011 RMK AO2
KGUC 
39nm SE 
022256Z AUTO 27012G25KT 10SM CLR 03/M06 A3007 RMK AO2 PK WND 28028/2234 RAE14 SLP190 P0000 T00331061
TAF
KMTJ 
23nm SW 
021741Z 0218/0318 28010G22KT P6SM VCSH FEW060 BKN080 FM021900 28018G32KT P6SM BKN060 FM022300 31011G19KT P6SM SCT200 FM030200 14005KT P6SM SCT250
NOTAMs
Click for the latest NOTAMs
NOTAMs are issued by the DoD/FAA and will open in a separate window not controlled by AirNav.

 

 
 

FBO, Fuel Providers, and Aircraft Ground Support

  
 Business Name 
 
 Contact 
 
 Services / Description 
 
Fuel Prices
 
Comments
  
North Fork Aviation, LLC 970-527-3345
970-260-2138
[email]
Airport management, Aviation fuel, Aircraft parking (ramp or tiedown), Hangars, Hangar leasing / sales, Courtesy transportation, Pilots lounge / snooze room, ...

More info about North Fork Aviation, LLC
independent
100LL
FS $6.50 
SS $6.50 
 Updated 18-Nov-2022
 
   2 read write
FS=Full service
SS=Self service
Update Fuel Prices
 

Would you like to see your business listed on this page?

 If your business provides an interesting product or service to pilots, flight crews, aircraft, or users of the North Fork Valley Airport, you should consider listing it here.  To start the listing process, click on the button below
 
Add a business
 

Other Pages about North Fork Valley Airport

www.flycolorado.org/...
 
Update a link
 
Copyright © AirNav, LLC. All rights reserved. Privacy Policy  Contact